sensor_id;sensor_type;location;lat;lon;timestamp;temperature;humidity
7472;DHT22;3777;48.722;8.110;2023-04-25T00:00:00;11.50;99.90
7472;DHT22;3777;48.722;8.110;2023-04-25T00:02:29;11.50;99.90
7472;DHT22;3777;48.722;8.110;2023-04-25T00:04:57;11.50;99.90
7472;DHT22;3777;48.722;8.110;2023-04-25T00:07:25;11.40;99.90
7472;DHT22;3777;48.722;8.110;2023-04-25T00:09:52;11.40;99.90
7472;DHT22;3777;48.722;8.110;2023-04-25T00:12:20;11.40;99.90
7472;DHT22;3777;48.722;8.110;2023-04-25T00:14:48;11.40;99.90
7472;DHT22;3777;48.722;8.110;2023-04-25T00:17:17;11.30;99.90
7472;DHT22;3777;48.722;8.110;2023-04-25T00:19:44;11.30;99.90
7472;DHT22;3777;48.722;8.110;2023-04-25T00:22:12;11.30;99.90
7472;DHT22;3777;48.722;8.110;2023-04-25T00:24:39;11.30;99.90
7472;DHT22;3777;48.722;8.110;2023-04-25T00:27:05;11.30;99.90
7472;DHT22;3777;48.722;8.110;2023-04-25T00:29:34;11.30;99.90
7472;DHT22;3777;48.722;8.110;2023-04-25T00:32:01;11.20;99.90
7472;DHT22;3777;48.722;8.110;2023-04-25T00:34:28;11.20;99.90
7472;DHT22;3777;48.722;8.110;2023-04-25T00:36:55;11.20;99.90
7472;DHT22;3777;48.722;8.110;2023-04-25T00:39:22;11.20;99.90
7472;DHT22;3777;48.722;8.110;2023-04-25T00:41:50;11.20;99.90
7472;DHT22;3777;48.722;8.110;2023-04-25T00:44:20;11.10;99.90
7472;DHT22;3777;48.722;8.110;2023-04-25T00:46:48;11.10;99.90
7472;DHT22;3777;48.722;8.110;2023-04-25T00:49:15;11.10;99.90
7472;DHT22;3777;48.722;8.110;2023-04-25T00:51:43;11.10;99.90
7472;DHT22;3777;48.722;8.110;2023-04-25T00:54:11;11.10;99.90
7472;DHT22;3777;48.722;8.110;2023-04-25T00:56:38;11.10;99.90
7472;DHT22;3777;48.722;8.110;2023-04-25T00:59:06;11.10;99.90
7472;DHT22;3777;48.722;8.110;2023-04-25T01:01:33;11.10;99.90
7472;DHT22;3777;48.722;8.110;2023-04-25T01:04:02;11.10;99.90
7472;DHT22;3777;48.722;8.110;2023-04-25T01:06:29;11.10;99.90
7472;DHT22;3777;48.722;8.110;2023-04-25T01:08:56;11.10;99.90
7472;DHT22;3777;48.722;8.110;2023-04-25T01:11:24;11.10;99.90
7472;DHT22;3777;48.722;8.110;2023-04-25T01:13:51;11.00;99.90
7472;DHT22;3777;48.722;8.110;2023-04-25T01:16:18;11.00;99.90
7472;DHT22;3777;48.722;8.110;2023-04-25T01:18:45;10.90;99.90
7472;DHT22;3777;48.722;8.110;2023-04-25T01:21:14;10.90;99.90
7472;DHT22;3777;48.722;8.110;2023-04-25T01:23:42;10.90;99.90
7472;DHT22;3777;48.722;8.110;2023-04-25T01:26:10;10.90;99.90
7472;DHT22;3777;48.722;8.110;2023-04-25T01:28:38;10.90;99.90
7472;DHT22;3777;48.722;8.110;2023-04-25T01:31:06;10.90;99.90
7472;DHT22;3777;48.722;8.110;2023-04-25T01:33:33;10.90;99.90
7472;DHT22;3777;48.722;8.110;2023-04-25T01:36:00;10.90;99.90
7472;DHT22;3777;48.722;8.110;2023-04-25T01:38:29;10.90;99.90
7472;DHT22;3777;48.722;8.110;2023-04-25T01:40:56;10.90;99.90
7472;DHT22;3777;48.722;8.110;2023-04-25T01:43:23;10.90;99.90
7472;DHT22;3777;48.722;8.110;2023-04-25T01:45:50;10.90;99.90
7472;DHT22;3777;48.722;8.110;2023-04-25T01:48:17;11.00;99.90
7472;DHT22;3777;48.722;8.110;2023-04-25T01:50:45;11.00;99.90
7472;DHT22;3777;48.722;8.110;2023-04-25T01:53:13;11.00;99.90
7472;DHT22;3777;48.722;8.110;2023-04-25T01:55:42;11.00;99.90
7472;DHT22;3777;48.722;8.110;2023-04-25T01:58:09;11.00;99.90
7472;DHT22;3777;48.722;8.110;2023-04-25T02:00:38;11.00;99.90
7472;DHT22;3777;48.722;8.110;2023-04-25T02:03:06;11.10;99.90
7472;DHT22;3777;48.722;8.110;2023-04-25T02:05:36;11.00;99.90
7472;DHT22;3777;48.722;8.110;2023-04-25T02:08:05;11.00;99.90
7472;DHT22;3777;48.722;8.110;2023-04-25T02:10:32;11.00;99.90
7472;DHT22;3777;48.722;8.110;2023-04-25T02:13:01;11.00;99.90
7472;DHT22;3777;48.722;8.110;2023-04-25T02:15:28;11.00;99.90
7472;DHT22;3777;48.722;8.110;2023-04-25T02:17:55;11.00;99.90
7472;DHT22;3777;48.722;8.110;2023-04-25T02:20:23;11.00;99.90
7472;DHT22;3777;48.722;8.110;2023-04-25T02:22:50;11.00;99.90
7472;DHT22;3777;48.722;8.110;2023-04-25T02:25:18;11.00;99.90
7472;DHT22;3777;48.722;8.110;2023-04-25T02:27:45;11.00;99.90
7472;DHT22;3777;48.722;8.110;2023-04-25T02:30:14;11.00;99.90
7472;DHT22;3777;48.722;8.110;2023-04-25T02:32:41;11.00;99.90
7472;DHT22;3777;48.722;8.110;2023-04-25T02:35:08;11.00;99.90
7472;DHT22;3777;48.722;8.110;2023-04-25T02:37:38;11.10;99.90
7472;DHT22;3777;48.722;8.110;2023-04-25T02:40:06;11.10;99.90
7472;DHT22;3777;48.722;8.110;2023-04-25T02:42:33;11.10;99.90
7472;DHT22;3777;48.722;8.110;2023-04-25T02:45:00;11.10;99.90
7472;DHT22;3777;48.722;8.110;2023-04-25T02:47:29;11.10;99.90
7472;DHT22;3777;48.722;8.110;2023-04-25T02:49:56;11.10;99.90
7472;DHT22;3777;48.722;8.110;2023-04-25T02:52:23;11.10;99.90
7472;DHT22;3777;48.722;8.110;2023-04-25T02:54:50;11.10;99.90
7472;DHT22;3777;48.722;8.110;2023-04-25T02:57:17;11.10;99.90
7472;DHT22;3777;48.722;8.110;2023-04-25T02:59:44;11.10;99.90
7472;DHT22;3777;48.722;8.110;2023-04-25T03:02:11;11.10;99.90
7472;DHT22;3777;48.722;8.110;2023-04-25T03:04:40;11.10;99.90
7472;DHT22;3777;48.722;8.110;2023-04-25T03:07:07;11.00;99.90
7472;DHT22;3777;48.722;8.110;2023-04-25T03:09:34;10.90;99.90
7472;DHT22;3777;48.722;8.110;2023-04-25T03:12:01;11.00;99.90
7472;DHT22;3777;48.722;8.110;2023-04-25T03:14:28;11.00;99.90
7472;DHT22;3777;48.722;8.110;2023-04-25T03:16:55;11.00;99.90
7472;DHT22;3777;48.722;8.110;2023-04-25T03:19:22;11.00;99.90
7472;DHT22;3777;48.722;8.110;2023-04-25T03:21:50;11.10;99.90
7472;DHT22;3777;48.722;8.110;2023-04-25T03:24:17;11.10;99.90
7472;DHT22;3777;48.722;8.110;2023-04-25T03:26:44;11.10;99.90
7472;DHT22;3777;48.722;8.110;2023-04-25T03:29:11;11.10;99.90
7472;DHT22;3777;48.722;8.110;2023-04-25T03:31:38;11.20;99.90
7472;DHT22;3777;48.722;8.110;2023-04-25T03:34:05;11.20;99.90
7472;DHT22;3777;48.722;8.110;2023-04-25T03:36:32;11.20;99.90
7472;DHT22;3777;48.722;8.110;2023-04-25T03:39:00;11.20;99.90
7472;DHT22;3777;48.722;8.110;2023-04-25T03:41:28;11.10;99.90
7472;DHT22;3777;48.722;8.110;2023-04-25T03:43:55;11.00;99.90
7472;DHT22;3777;48.722;8.110;2023-04-25T03:46:22;10.90;99.90
7472;DHT22;3777;48.722;8.110;2023-04-25T03:48:49;10.90;99.90
7472;DHT22;3777;48.722;8.110;2023-04-25T03:51:16;11.00;99.90
7472;DHT22;3777;48.722;8.110;2023-04-25T03:53:43;11.00;99.90
7472;DHT22;3777;48.722;8.110;2023-04-25T03:56:11;10.90;99.90
7472;DHT22;3777;48.722;8.110;2023-04-25T03:58:38;10.90;99.90
7472;DHT22;3777;48.722;8.110;2023-04-25T04:01:05;10.90;99.90
7472;DHT22;3777;48.722;8.110;2023-04-25T04:03:33;10.90;99.90
7472;DHT22;3777;48.722;8.110;2023-04-25T04:06:01;10.90;99.90
7472;DHT22;3777;48.722;8.110;2023-04-25T04:08:29;10.90;99.90
7472;DHT22;3777;48.722;8.110;2023-04-25T04:10:57;11.00;99.90
7472;DHT22;3777;48.722;8.110;2023-04-25T04:13:25;11.00;99.90
7472;DHT22;3777;48.722;8.110;2023-04-25T04:15:52;11.00;99.90
7472;DHT22;3777;48.722;8.110;2023-04-25T04:18:19;11.00;99.90
7472;DHT22;3777;48.722;8.110;2023-04-25T04:20:46;11.00;99.90
7472;DHT22;3777;48.722;8.110;2023-04-25T04:23:13;11.10;99.90
7472;DHT22;3777;48.722;8.110;2023-04-25T04:25:40;11.10;99.90
7472;DHT22;3777;48.722;8.110;2023-04-25T04:28:07;11.10;99.90
7472;DHT22;3777;48.722;8.110;2023-04-25T04:30:36;11.10;99.90
7472;DHT22;3777;48.722;8.110;2023-04-25T04:33:03;11.10;99.90
7472;DHT22;3777;48.722;8.110;2023-04-25T04:35:30;11.10;99.90
7472;DHT22;3777;48.722;8.110;2023-04-25T04:37:57;11.10;99.90
7472;DHT22;3777;48.722;8.110;2023-04-25T04:40:24;11.10;99.90
7472;DHT22;3777;48.722;8.110;2023-04-25T04:42:51;11.10;99.90
7472;DHT22;3777;48.722;8.110;2023-04-25T04:45:22;11.10;99.90
7472;DHT22;3777;48.722;8.110;2023-04-25T04:47:50;11.10;99.90
7472;DHT22;3777;48.722;8.110;2023-04-25T04:50:17;11.20;99.90
7472;DHT22;3777;48.722;8.110;2023-04-25T04:52:44;11.20;99.90
7472;DHT22;3777;48.722;8.110;2023-04-25T04:55:11;11.20;99.90
7472;DHT22;3777;48.722;8.110;2023-04-25T04:57:38;11.20;99.90
7472;DHT22;3777;48.722;8.110;2023-04-25T05:00:06;11.20;99.90
7472;DHT22;3777;48.722;8.110;2023-04-25T05:02:37;11.20;99.90
7472;DHT22;3777;48.722;8.110;2023-04-25T05:05:06;11.20;99.90
7472;DHT22;3777;48.722;8.110;2023-04-25T05:07:33;11.20;99.90
7472;DHT22;3777;48.722;8.110;2023-04-25T05:10:00;11.20;99.90
7472;DHT22;3777;48.722;8.110;2023-04-25T05:12:27;11.20;99.90
7472;DHT22;3777;48.722;8.110;2023-04-25T05:14:54;11.30;99.90
7472;DHT22;3777;48.722;8.110;2023-04-25T05:17:21;11.30;99.90
7472;DHT22;3777;48.722;8.110;2023-04-25T05:19:48;11.30;99.90
7472;DHT22;3777;48.722;8.110;2023-04-25T05:22:16;11.30;99.90
7472;DHT22;3777;48.722;8.110;2023-04-25T05:24:43;11.30;99.90
7472;DHT22;3777;48.722;8.110;2023-04-25T05:27:10;11.30;99.90
7472;DHT22;3777;48.722;8.110;2023-04-25T05:29:37;11.30;99.90
7472;DHT22;3777;48.722;8.110;2023-04-25T05:32:05;11.30;99.90
7472;DHT22;3777;48.722;8.110;2023-04-25T05:34:33;11.30;99.90
7472;DHT22;3777;48.722;8.110;2023-04-25T05:37:00;11.30;99.90
7472;DHT22;3777;48.722;8.110;2023-04-25T05:39:28;11.30;99.90
7472;DHT22;3777;48.722;8.110;2023-04-25T05:41:55;11.30;99.90
7472;DHT22;3777;48.722;8.110;2023-04-25T05:44:22;11.30;99.90
7472;DHT22;3777;48.722;8.110;2023-04-25T05:46:49;11.20;99.90
7472;DHT22;3777;48.722;8.110;2023-04-25T05:49:16;11.20;99.90
7472;DHT22;3777;48.722;8.110;2023-04-25T05:51:43;11.20;99.90
7472;DHT22;3777;48.722;8.110;2023-04-25T05:54:10;11.20;99.90
7472;DHT22;3777;48.722;8.110;2023-04-25T05:56:38;11.20;99.90
7472;DHT22;3777;48.722;8.110;2023-04-25T05:59:05;11.10;99.90
7472;DHT22;3777;48.722;8.110;2023-04-25T06:01:32;11.10;99.90
7472;DHT22;3777;48.722;8.110;2023-04-25T06:03:59;11.00;99.90
7472;DHT22;3777;48.722;8.110;2023-04-25T06:06:27;10.90;99.90
7472;DHT22;3777;48.722;8.110;2023-04-25T06:08:53;10.90;99.90
7472;DHT22;3777;48.722;8.110;2023-04-25T06:11:21;10.80;99.90
7472;DHT22;3777;48.722;8.110;2023-04-25T06:13:49;10.70;99.90
7472;DHT22;3777;48.722;8.110;2023-04-25T06:16:16;10.70;99.90
7472;DHT22;3777;48.722;8.110;2023-04-25T06:18:43;10.60;99.90
7472;DHT22;3777;48.722;8.110;2023-04-25T06:21:10;10.60;99.90
7472;DHT22;3777;48.722;8.110;2023-04-25T06:23:37;10.60;99.90
7472;DHT22;3777;48.722;8.110;2023-04-25T06:26:04;10.50;99.90
7472;DHT22;3777;48.722;8.110;2023-04-25T06:28:30;10.50;99.90
7472;DHT22;3777;48.722;8.110;2023-04-25T06:30:59;10.50;99.90
7472;DHT22;3777;48.722;8.110;2023-04-25T06:33:26;10.60;99.90
7472;DHT22;3777;48.722;8.110;2023-04-25T06:35:53;10.60;99.90
7472;DHT22;3777;48.722;8.110;2023-04-25T06:38:20;10.60;99.90
7472;DHT22;3777;48.722;8.110;2023-04-25T06:40:46;10.60;99.90
7472;DHT22;3777;48.722;8.110;2023-04-25T06:43:13;10.60;99.90
7472;DHT22;3777;48.722;8.110;2023-04-25T06:45:40;10.70;99.90
7472;DHT22;3777;48.722;8.110;2023-04-25T06:48:09;10.70;99.90
7472;DHT22;3777;48.722;8.110;2023-04-25T06:50:36;10.70;99.90
7472;DHT22;3777;48.722;8.110;2023-04-25T06:53:03;10.70;99.90
7472;DHT22;3777;48.722;8.110;2023-04-25T06:55:30;10.70;99.90
7472;DHT22;3777;48.722;8.110;2023-04-25T06:57:56;10.70;99.90
7472;DHT22;3777;48.722;8.110;2023-04-25T07:00:23;10.70;99.90
7472;DHT22;3777;48.722;8.110;2023-04-25T07:02:50;10.70;99.90
7472;DHT22;3777;48.722;8.110;2023-04-25T07:05:19;10.70;99.90
7472;DHT22;3777;48.722;8.110;2023-04-25T07:07:46;10.70;99.90
7472;DHT22;3777;48.722;8.110;2023-04-25T07:10:13;10.70;99.90
7472;DHT22;3777;48.722;8.110;2023-04-25T07:12:40;10.70;99.90
7472;DHT22;3777;48.722;8.110;2023-04-25T07:15:08;10.70;99.90
7472;DHT22;3777;48.722;8.110;2023-04-25T07:17:36;10.70;99.90
7472;DHT22;3777;48.722;8.110;2023-04-25T07:20:03;10.70;99.90
7472;DHT22;3777;48.722;8.110;2023-04-25T07:22:32;10.70;99.90
7472;DHT22;3777;48.722;8.110;2023-04-25T07:24:59;10.70;99.90
7472;DHT22;3777;48.722;8.110;2023-04-25T07:27:26;10.70;99.90
7472;DHT22;3777;48.722;8.110;2023-04-25T07:29:53;10.70;99.90
7472;DHT22;3777;48.722;8.110;2023-04-25T07:32:20;10.70;99.90
7472;DHT22;3777;48.722;8.110;2023-04-25T07:34:47;10.70;99.90
7472;DHT22;3777;48.722;8.110;2023-04-25T07:37:14;10.70;99.90
7472;DHT22;3777;48.722;8.110;2023-04-25T07:39:43;10.70;99.90
7472;DHT22;3777;48.722;8.110;2023-04-25T07:42:11;10.70;99.90
7472;DHT22;3777;48.722;8.110;2023-04-25T07:44:38;10.80;99.90
7472;DHT22;3777;48.722;8.110;2023-04-25T07:47:05;10.70;99.90
7472;DHT22;3777;48.722;8.110;2023-04-25T07:49:33;10.70;99.90
7472;DHT22;3777;48.722;8.110;2023-04-25T07:52:01;10.60;99.90
7472;DHT22;3777;48.722;8.110;2023-04-25T07:54:28;10.60;99.90
7472;DHT22;3777;48.722;8.110;2023-04-25T07:56:57;10.60;99.90
7472;DHT22;3777;48.722;8.110;2023-04-25T07:59:24;10.50;99.90
7472;DHT22;3777;48.722;8.110;2023-04-25T08:01:50;10.40;99.90
7472;DHT22;3777;48.722;8.110;2023-04-25T08:04:17;10.40;99.90
7472;DHT22;3777;48.722;8.110;2023-04-25T08:06:44;10.50;99.90
7472;DHT22;3777;48.722;8.110;2023-04-25T08:09:12;10.40;99.90
7472;DHT22;3777;48.722;8.110;2023-04-25T08:11:39;10.50;99.90
7472;DHT22;3777;48.722;8.110;2023-04-25T08:14:07;10.50;99.90
7472;DHT22;3777;48.722;8.110;2023-04-25T08:16:34;10.50;99.90
7472;DHT22;3777;48.722;8.110;2023-04-25T08:19:03;10.50;99.90
7472;DHT22;3777;48.722;8.110;2023-04-25T08:21:30;10.50;99.90
7472;DHT22;3777;48.722;8.110;2023-04-25T08:23:58;10.50;99.90
7472;DHT22;3777;48.722;8.110;2023-04-25T08:26:25;10.50;99.90
7472;DHT22;3777;48.722;8.110;2023-04-25T08:28:52;10.50;99.90
7472;DHT22;3777;48.722;8.110;2023-04-25T08:31:21;10.50;99.90
7472;DHT22;3777;48.722;8.110;2023-04-25T08:33:47;10.50;99.90
7472;DHT22;3777;48.722;8.110;2023-04-25T08:36:16;10.50;99.90
7472;DHT22;3777;48.722;8.110;2023-04-25T08:38:44;10.50;99.90
7472;DHT22;3777;48.722;8.110;2023-04-25T08:41:11;10.50;99.90
7472;DHT22;3777;48.722;8.110;2023-04-25T08:43:42;10.50;99.90
7472;DHT22;3777;48.722;8.110;2023-04-25T08:46:11;10.50;99.90
7472;DHT22;3777;48.722;8.110;2023-04-25T08:48:40;10.40;99.90
7472;DHT22;3777;48.722;8.110;2023-04-25T08:51:10;10.40;99.90
7472;DHT22;3777;48.722;8.110;2023-04-25T08:53:41;10.40;99.90
7472;DHT22;3777;48.722;8.110;2023-04-25T08:56:09;10.40;99.90
7472;DHT22;3777;48.722;8.110;2023-04-25T08:58:38;10.40;99.90
7472;DHT22;3777;48.722;8.110;2023-04-25T09:01:06;10.40;99.90
7472;DHT22;3777;48.722;8.110;2023-04-25T09:03:33;10.20;99.90
7472;DHT22;3777;48.722;8.110;2023-04-25T09:06:02;10.20;99.90
7472;DHT22;3777;48.722;8.110;2023-04-25T09:08:30;10.20;99.90
7472;DHT22;3777;48.722;8.110;2023-04-25T09:10:57;10.10;99.90
7472;DHT22;3777;48.722;8.110;2023-04-25T09:13:25;10.10;99.90
7472;DHT22;3777;48.722;8.110;2023-04-25T09:15:54;10.20;99.90
7472;DHT22;3777;48.722;8.110;2023-04-25T09:18:25;10.20;99.90
7472;DHT22;3777;48.722;8.110;2023-04-25T09:20:53;10.30;99.90
7472;DHT22;3777;48.722;8.110;2023-04-25T09:23:22;10.40;99.90
7472;DHT22;3777;48.722;8.110;2023-04-25T09:25:51;10.40;99.90
7472;DHT22;3777;48.722;8.110;2023-04-25T09:28:23;10.40;99.90
7472;DHT22;3777;48.722;8.110;2023-04-25T09:30:55;10.50;99.90
7472;DHT22;3777;48.722;8.110;2023-04-25T09:33:27;10.40;99.90
7472;DHT22;3777;48.722;8.110;2023-04-25T09:36:02;10.50;99.90
7472;DHT22;3777;48.722;8.110;2023-04-25T09:38:31;10.40;99.90
7472;DHT22;3777;48.722;8.110;2023-04-25T09:40:59;10.30;99.90
7472;DHT22;3777;48.722;8.110;2023-04-25T09:43:27;10.20;99.90
7472;DHT22;3777;48.722;8.110;2023-04-25T09:45:54;10.00;99.90
7472;DHT22;3777;48.722;8.110;2023-04-25T09:48:25;9.90;99.90
7472;DHT22;3777;48.722;8.110;2023-04-25T09:51:04;9.70;99.90
7472;DHT22;3777;48.722;8.110;2023-04-25T09:53:33;9.70;99.90
7472;DHT22;3777;48.722;8.110;2023-04-25T09:56:03;9.80;99.90
7472;DHT22;3777;48.722;8.110;2023-04-25T09:58:31;9.90;99.90
7472;DHT22;3777;48.722;8.110;2023-04-25T10:01:00;10.00;99.90
7472;DHT22;3777;48.722;8.110;2023-04-25T10:03:30;10.00;99.90
7472;DHT22;3777;48.722;8.110;2023-04-25T10:05:59;9.90;99.90
7472;DHT22;3777;48.722;8.110;2023-04-25T10:08:33;10.00;99.90
7472;DHT22;3777;48.722;8.110;2023-04-25T10:11:01;10.00;99.90
7472;DHT22;3777;48.722;8.110;2023-04-25T10:13:30;10.00;99.90
7472;DHT22;3777;48.722;8.110;2023-04-25T10:15:57;10.20;99.90
7472;DHT22;3777;48.722;8.110;2023-04-25T10:18:25;10.10;99.90
7472;DHT22;3777;48.722;8.110;2023-04-25T10:20:54;10.20;99.90
7472;DHT22;3777;48.722;8.110;2023-04-25T10:23:22;10.40;99.90
7472;DHT22;3777;48.722;8.110;2023-04-25T10:25:52;10.60;99.90
7472;DHT22;3777;48.722;8.110;2023-04-25T10:28:19;10.80;99.90
7472;DHT22;3777;48.722;8.110;2023-04-25T10:31:08;10.70;99.90
7472;DHT22;3777;48.722;8.110;2023-04-25T10:33:35;11.00;99.90
7472;DHT22;3777;48.722;8.110;2023-04-25T10:36:10;11.00;99.90
7472;DHT22;3777;48.722;8.110;2023-04-25T10:38:38;11.10;99.90
7472;DHT22;3777;48.722;8.110;2023-04-25T10:41:08;11.20;99.90
7472;DHT22;3777;48.722;8.110;2023-04-25T10:43:39;11.40;99.90
7472;DHT22;3777;48.722;8.110;2023-04-25T10:46:16;11.30;99.90
7472;DHT22;3777;48.722;8.110;2023-04-25T10:48:46;11.40;99.90
7472;DHT22;3777;48.722;8.110;2023-04-25T10:51:19;11.40;99.90
7472;DHT22;3777;48.722;8.110;2023-04-25T10:53:46;11.50;99.90
7472;DHT22;3777;48.722;8.110;2023-04-25T10:56:19;11.20;99.90
7472;DHT22;3777;48.722;8.110;2023-04-25T10:58:47;11.20;99.90
7472;DHT22;3777;48.722;8.110;2023-04-25T11:01:15;11.10;99.90
7472;DHT22;3777;48.722;8.110;2023-04-25T11:03:45;11.00;99.90
7472;DHT22;3777;48.722;8.110;2023-04-25T11:06:24;11.10;99.90
7472;DHT22;3777;48.722;8.110;2023-04-25T11:08:53;11.20;99.90
7472;DHT22;3777;48.722;8.110;2023-04-25T11:11:21;11.30;99.90
7472;DHT22;3777;48.722;8.110;2023-04-25T11:13:49;11.40;99.90
7472;DHT22;3777;48.722;8.110;2023-04-25T11:16:16;11.40;99.90
7472;DHT22;3777;48.722;8.110;2023-04-25T11:18:44;11.40;99.90
7472;DHT22;3777;48.722;8.110;2023-04-25T11:21:11;11.30;99.90
7472;DHT22;3777;48.722;8.110;2023-04-25T11:23:38;11.30;99.90
7472;DHT22;3777;48.722;8.110;2023-04-25T11:26:05;11.40;99.90
7472;DHT22;3777;48.722;8.110;2023-04-25T11:28:34;11.60;99.90
7472;DHT22;3777;48.722;8.110;2023-04-25T11:31:02;11.60;99.90
7472;DHT22;3777;48.722;8.110;2023-04-25T11:33:30;12.00;99.90
7472;DHT22;3777;48.722;8.110;2023-04-25T11:35:58;12.40;99.90
7472;DHT22;3777;48.722;8.110;2023-04-25T11:38:25;12.40;99.90
7472;DHT22;3777;48.722;8.110;2023-04-25T11:40:52;12.50;99.90
7472;DHT22;3777;48.722;8.110;2023-04-25T11:43:20;13.00;99.90
7472;DHT22;3777;48.722;8.110;2023-04-25T11:45:50;13.30;99.90
7472;DHT22;3777;48.722;8.110;2023-04-25T11:48:18;13.60;99.90
7472;DHT22;3777;48.722;8.110;2023-04-25T11:50:45;14.30;99.90
7472;DHT22;3777;48.722;8.110;2023-04-25T11:53:12;14.50;99.90
7472;DHT22;3777;48.722;8.110;2023-04-25T11:55:39;15.00;99.90
7472;DHT22;3777;48.722;8.110;2023-04-25T11:58:06;14.70;99.90
7472;DHT22;3777;48.722;8.110;2023-04-25T12:00:34;14.70;99.90
7472;DHT22;3777;48.722;8.110;2023-04-25T12:03:03;14.90;99.90
7472;DHT22;3777;48.722;8.110;2023-04-25T12:05:31;15.10;99.90
7472;DHT22;3777;48.722;8.110;2023-04-25T12:08:09;15.50;99.90
7472;DHT22;3777;48.722;8.110;2023-04-25T12:10:38;16.00;99.90
7472;DHT22;3777;48.722;8.110;2023-04-25T12:13:19;16.70;99.90
7472;DHT22;3777;48.722;8.110;2023-04-25T12:15:46;17.40;99.90
7472;DHT22;3777;48.722;8.110;2023-04-25T12:18:18;17.30;99.90
7472;DHT22;3777;48.722;8.110;2023-04-25T12:20:45;17.00;99.90
7472;DHT22;3777;48.722;8.110;2023-04-25T12:23:12;16.60;99.90
7472;DHT22;3777;48.722;8.110;2023-04-25T12:25:40;16.00;99.90
7472;DHT22;3777;48.722;8.110;2023-04-25T12:28:12;15.60;99.90
7472;DHT22;3777;48.722;8.110;2023-04-25T12:30:57;15.00;99.90
7472;DHT22;3777;48.722;8.110;2023-04-25T12:33:26;14.40;99.90
7472;DHT22;3777;48.722;8.110;2023-04-25T12:35:53;13.80;99.90
7472;DHT22;3777;48.722;8.110;2023-04-25T12:38:24;13.30;99.90
7472;DHT22;3777;48.722;8.110;2023-04-25T12:40:51;13.00;99.90
7472;DHT22;3777;48.722;8.110;2023-04-25T12:43:18;12.60;99.90
7472;DHT22;3777;48.722;8.110;2023-04-25T12:45:47;12.40;99.90
7472;DHT22;3777;48.722;8.110;2023-04-25T12:48:14;12.10;99.90
7472;DHT22;3777;48.722;8.110;2023-04-25T12:50:43;11.70;99.90
7472;DHT22;3777;48.722;8.110;2023-04-25T12:53:10;11.50;99.90
7472;DHT22;3777;48.722;8.110;2023-04-25T12:55:37;11.30;99.90
7472;DHT22;3777;48.722;8.110;2023-04-25T12:58:04;11.20;99.90
7472;DHT22;3777;48.722;8.110;2023-04-25T13:00:31;11.10;99.90
7472;DHT22;3777;48.722;8.110;2023-04-25T13:02:58;11.10;99.90
7472;DHT22;3777;48.722;8.110;2023-04-25T13:05:25;11.10;99.90
7472;DHT22;3777;48.722;8.110;2023-04-25T13:07:53;11.10;99.90
7472;DHT22;3777;48.722;8.110;2023-04-25T13:10:21;11.10;99.90
7472;DHT22;3777;48.722;8.110;2023-04-25T13:12:48;11.00;99.90
7472;DHT22;3777;48.722;8.110;2023-04-25T13:15:14;11.00;99.90
7472;DHT22;3777;48.722;8.110;2023-04-25T13:17:42;11.00;99.90
7472;DHT22;3777;48.722;8.110;2023-04-25T13:20:09;11.00;99.90
7472;DHT22;3777;48.722;8.110;2023-04-25T13:22:37;11.30;99.90
7472;DHT22;3777;48.722;8.110;2023-04-25T13:25:07;11.60;99.90
7472;DHT22;3777;48.722;8.110;2023-04-25T13:27:36;11.60;99.90
7472;DHT22;3777;48.722;8.110;2023-04-25T13:30:06;11.70;99.90
7472;DHT22;3777;48.722;8.110;2023-04-25T13:32:34;11.60;99.90
7472;DHT22;3777;48.722;8.110;2023-04-25T13:35:03;11.60;99.90
7472;DHT22;3777;48.722;8.110;2023-04-25T13:37:35;11.70;99.90
7472;DHT22;3777;48.722;8.110;2023-04-25T13:40:07;11.80;99.90
7472;DHT22;3777;48.722;8.110;2023-04-25T13:42:35;11.60;99.90
7472;DHT22;3777;48.722;8.110;2023-04-25T13:45:03;11.60;99.90
7472;DHT22;3777;48.722;8.110;2023-04-25T13:47:30;11.50;99.90
7472;DHT22;3777;48.722;8.110;2023-04-25T13:49:57;11.60;99.90
7472;DHT22;3777;48.722;8.110;2023-04-25T13:52:24;11.60;99.90
7472;DHT22;3777;48.722;8.110;2023-04-25T13:54:51;11.80;99.90
7472;DHT22;3777;48.722;8.110;2023-04-25T13:57:20;12.00;99.90
7472;DHT22;3777;48.722;8.110;2023-04-25T13:59:47;12.10;99.90
7472;DHT22;3777;48.722;8.110;2023-04-25T14:02:14;12.40;99.90
7472;DHT22;3777;48.722;8.110;2023-04-25T14:04:42;12.50;99.90
7472;DHT22;3777;48.722;8.110;2023-04-25T14:07:09;12.70;99.90
7472;DHT22;3777;48.722;8.110;2023-04-25T14:09:37;12.90;99.90
7472;DHT22;3777;48.722;8.110;2023-04-25T14:12:04;12.80;99.90
7472;DHT22;3777;48.722;8.110;2023-04-25T14:14:32;12.70;99.90
7472;DHT22;3777;48.722;8.110;2023-04-25T14:17:00;12.70;99.90
7472;DHT22;3777;48.722;8.110;2023-04-25T14:19:27;12.90;99.90
7472;DHT22;3777;48.722;8.110;2023-04-25T14:21:54;13.30;99.90
7472;DHT22;3777;48.722;8.110;2023-04-25T14:24:21;13.60;99.90
7472;DHT22;3777;48.722;8.110;2023-04-25T14:26:48;13.90;99.90
7472;DHT22;3777;48.722;8.110;2023-04-25T14:29:15;13.60;99.90
7472;DHT22;3777;48.722;8.110;2023-04-25T14:31:43;13.90;99.90
7472;DHT22;3777;48.722;8.110;2023-04-25T14:34:10;13.90;99.90
7472;DHT22;3777;48.722;8.110;2023-04-25T14:36:37;14.00;99.90
7472;DHT22;3777;48.722;8.110;2023-04-25T14:39:05;13.90;99.90
7472;DHT22;3777;48.722;8.110;2023-04-25T14:41:32;13.60;99.90
7472;DHT22;3777;48.722;8.110;2023-04-25T14:43:59;13.70;99.90
7472;DHT22;3777;48.722;8.110;2023-04-25T14:46:27;14.00;99.90
7472;DHT22;3777;48.722;8.110;2023-04-25T14:48:55;14.30;99.90
7472;DHT22;3777;48.722;8.110;2023-04-25T14:51:22;14.20;99.90
7472;DHT22;3777;48.722;8.110;2023-04-25T14:53:49;14.30;99.90
7472;DHT22;3777;48.722;8.110;2023-04-25T14:56:16;14.50;99.90
7472;DHT22;3777;48.722;8.110;2023-04-25T14:58:44;14.60;99.90
7472;DHT22;3777;48.722;8.110;2023-04-25T15:01:11;14.60;99.90
7472;DHT22;3777;48.722;8.110;2023-04-25T15:03:38;14.10;99.90
7472;DHT22;3777;48.722;8.110;2023-04-25T15:06:07;14.00;99.90
7472;DHT22;3777;48.722;8.110;2023-04-25T15:08:34;13.60;99.90
7472;DHT22;3777;48.722;8.110;2023-04-25T15:11:01;13.60;99.90
7472;DHT22;3777;48.722;8.110;2023-04-25T15:13:28;13.60;99.90
7472;DHT22;3777;48.722;8.110;2023-04-25T15:15:58;13.80;99.90
7472;DHT22;3777;48.722;8.110;2023-04-25T15:18:28;14.00;99.90
7472;DHT22;3777;48.722;8.110;2023-04-25T15:20:55;14.00;99.90
7472;DHT22;3777;48.722;8.110;2023-04-25T15:23:23;13.60;99.90
7472;DHT22;3777;48.722;8.110;2023-04-25T15:25:50;13.50;99.90
7472;DHT22;3777;48.722;8.110;2023-04-25T15:28:18;13.60;99.90
7472;DHT22;3777;48.722;8.110;2023-04-25T15:30:46;13.70;99.90
7472;DHT22;3777;48.722;8.110;2023-04-25T15:33:13;13.80;99.90
7472;DHT22;3777;48.722;8.110;2023-04-25T15:35:40;13.80;99.90
7472;DHT22;3777;48.722;8.110;2023-04-25T15:38:08;13.90;99.90
7472;DHT22;3777;48.722;8.110;2023-04-25T15:40:37;13.90;99.90
7472;DHT22;3777;48.722;8.110;2023-04-25T15:43:04;13.90;99.90
7472;DHT22;3777;48.722;8.110;2023-04-25T15:45:32;13.90;99.90
7472;DHT22;3777;48.722;8.110;2023-04-25T15:48:00;13.90;99.90
7472;DHT22;3777;48.722;8.110;2023-04-25T15:50:27;13.90;99.90
7472;DHT22;3777;48.722;8.110;2023-04-25T15:52:54;13.80;99.90
7472;DHT22;3777;48.722;8.110;2023-04-25T15:55:22;13.50;99.90
7472;DHT22;3777;48.722;8.110;2023-04-25T15:57:52;13.10;99.90
7472;DHT22;3777;48.722;8.110;2023-04-25T16:00:20;12.80;99.90
7472;DHT22;3777;48.722;8.110;2023-04-25T16:02:47;12.50;99.90
7472;DHT22;3777;48.722;8.110;2023-04-25T16:05:14;12.20;99.90